Time;durP1;ratioP1;P1;durP2;ratioP2;P2;SDS_P1;SDS_P2;PMS_P1;PMS_P2;Temp;Humidity;BMP_temperature;BMP_pressure;BME280_temperature;BME280_humidity;BME280_pressure;Samples;Min_cycle;Max_cycle;Signal;HPM_P1;HPM_P2
2021/07/12 00:01:41;;;;;;;11.38;9.05;;;;;;;23.63;68.32;101229.22;1720208;83;21842;-75
2021/07/12 00:04:14;;;;;;;16.95;9.80;;;;;;;23.57;68.57;101226.30;1728217;82;21782;-75
2021/07/12 00:06:48;;;;;;;15.15;9.13;;;;;;;23.54;68.91;101224.16;1719383;83;21202;-76
2021/07/12 00:09:21;;;;;;;;;;;;;;;23.52;68.93;101224.48;1740823;82;21735;-76
2021/07/12 00:11:56;;;;;;;14.03;10.03;;;;;;;23.50;68.92;101226.82;1750668;82;20190;-73
2021/07/12 00:14:31;;;;;;;15.35;9.25;;;;;;;23.47;68.90;101227.48;1750812;81;21187;-75
2021/07/12 00:17:03;;;;;;;13.03;9.18;;;;;;;23.44;68.79;101226.73;1736278;82;21869;-77
2021/07/12 00:19:37;;;;;;;15.63;9.65;;;;;;;23.42;68.70;101224.80;1719354;83;21716;-78
2021/07/12 00:22:09;;;;;;;17.20;10.00;;;;;;;23.42;68.56;101226.22;1719920;83;21209;-74
2021/07/12 00:24:41;;;;;;;15.75;8.93;;;;;;;23.43;68.34;101223.66;1719962;83;21384;-75
2021/07/12 00:27:14;;;;;;;13.47;9.53;;;;;;;23.44;68.10;101225.89;1719992;83;21333;-72
2021/07/12 00:29:48;;;;;;;15.18;9.53;;;;;;;23.43;67.61;101226.49;1719583;83;21206;-71
2021/07/12 00:32:21;;;;;;;19.10;9.27;;;;;;;23.42;67.42;101231.07;1719555;83;21186;-71
2021/07/12 00:34:54;;;;;;;10.40;8.15;;;;;;;23.40;67.50;101234.83;1743824;82;21242;-70
2021/07/12 00:37:26;;;;;;;15.65;9.18;;;;;;;23.36;67.49;101233.22;1731020;82;21241;-71
2021/07/12 00:39:59;;;;;;;13.80;9.75;;;;;;;23.36;67.61;101228.15;1750866;81;21186;-71
2021/07/12 00:42:31;;;;;;;11.43;9.05;;;;;;;23.36;67.69;101233.82;1719533;82;21361;-73
2021/07/12 00:45:12;;;;;;;14.10;9.98;;;;;;;23.32;67.69;101233.66;1719283;83;21187;-70
2021/07/12 00:47:45;;;;;;;17.30;10.32;;;;;;;23.30;67.79;101242.23;1716022;83;21266;-72
2021/07/12 00:50:19;;;;;;;12.45;9.10;;;;;;;23.27;67.86;101239.48;1693189;83;21798;-71
2021/07/12 00:52:53;;;;;;;15.40;9.23;;;;;;;23.24;68.14;101236.47;1693896;83;21214;-72
2021/07/12 00:55:39;;;;;;;11.50;9.78;;;;;;;23.22;68.28;101238.22;1719451;83;21214;-72
2021/07/12 00:58:14;;;;;;;16.65;9.68;;;;;;;23.22;68.54;101241.65;1717649;83;21178;-72
2021/07/12 01:00:50;;;;;;;17.32;10.05;;;;;;;23.18;68.72;101243.47;1720882;83;21857;-71
2021/07/12 01:03:24;;;;;;;13.58;10.00;;;;;;;23.14;68.92;101236.18;1720850;83;21253;-69
2021/07/12 01:06:00;;;;;;;15.45;8.98;;;;;;;23.12;69.34;101237.67;1705019;84;21370;-71
2021/07/12 01:08:37;;;;;;;12.95;9.45;;;;;;;23.10;69.57;101232.92;1720846;83;21285;-71
2021/07/12 01:11:50;;;;;;;16.62;9.18;;;;;;;23.10;69.84;101235.76;1720809;82;21609;-72
2021/07/12 01:14:44;;;;;;;15.30;11.08;;;;;;;23.07;69.96;101232.16;1705002;83;21181;-71
2021/07/12 01:17:30;;;;;;;18.62;9.38;;;;;;;23.03;70.25;101241.09;1786445;77;21167;-74
2021/07/12 01:20:23;;;;;;;15.60;9.80;;;;;;;22.99;70.64;101236.63;1777837;80;21323;-77
2021/07/12 01:23:20;;;;;;;18.95;10.18;;;;;;;22.95;70.88;101244.71;1793123;80;21724;-73
2021/07/12 01:26:23;;;;;;;18.23;8.83;;;;;;;22.91;71.22;101242.30;1754742;80;21711;-73
2021/07/12 01:29:15;;;;;;;17.50;8.75;;;;;;;22.90;71.26;101236.36;1794486;80;21754;-82
2021/07/12 01:32:45;;;;;;;15.48;10.25;;;;;;;22.90;71.32;101235.80;1789115;80;21700;-79
2021/07/12 01:35:47;;;;;;;15.43;10.82;;;;;;;22.94;71.41;101245.88;1793575;80;21136;-71
2021/07/12 01:38:42;;;;;;;20.50;10.23;;;;;;;22.95;71.45;101245.56;1793545;80;21282;-72
2021/07/12 01:41:37;;;;;;;12.88;9.08;;;;;;;22.90;71.70;101243.44;1793320;80;21195;-76
2021/07/12 01:44:33;;;;;;;18.67;9.78;;;;;;;22.84;71.87;101241.92;1770541;80;21282;-69
2021/07/12 01:47:12;;;;;;;12.85;9.45;;;;;;;22.83;72.03;101234.59;1779931;80;21353;-69
2021/07/12 01:50:05;;;;;;;12.45;9.85;;;;;;;22.86;72.06;101238.20;1789772;80;21839;-72
2021/07/12 01:53:03;;;;;;;10.88;9.15;;;;;;;22.89;71.96;101235.55;1793864;80;21136;-71
2021/07/12 01:56:05;;;;;;;14.50;8.98;;;;;;;22.94;71.85;101234.55;1750191;81;21309;-73
2021/07/12 01:59:00;;;;;;;10.53;9.43;;;;;;;22.95;71.84;101227.70;1769945;81;21230;-74
2021/07/12 02:01:33;;;;;;;;;;;;;;;22.96;71.81;101221.72;1795689;80;21183;-71
2021/07/12 02:04:07;;;;;;;16.20;9.95;;;;;;;22.94;71.73;101212.73;1777808;80;20242;-72
2021/07/12 02:06:42;;;;;;;19.73;8.70;;;;;;;22.97;71.66;101212.66;1794795;80;21344;-71
2021/07/12 02:09:17;;;;;;;8.85;7.78;;;;;;;22.99;71.66;101208.30;1778702;80;21339;-72
2021/07/12 02:11:51;;;;;;;16.95;9.53;;;;;;;22.97;71.68;101206.98;1791387;80;21799;-71
2021/07/12 02:14:24;;;;;;;16.30;9.33;;;;;;;22.98;71.80;101212.91;1777966;80;21324;-75
2021/07/12 02:16:58;;;;;;;19.55;9.78;;;;;;;22.99;71.72;101204.64;1792553;80;21310;-68
2021/07/12 02:19:31;;;;;;;13.13;9.38;;;;;;;23.00;71.63;101212.83;1777191;80;21182;-68
2021/07/12 02:22:05;;;;;;;22.67;10.98;;;;;;;22.99;71.48;101207.48;1791737;80;21200;-70
2021/07/12 02:24:46;;;;;;;20.20;9.95;;;;;;;22.98;71.41;101205.22;1723877;82;21827;-68
2021/07/12 02:27:20;;;;;;;16.27;9.35;;;;;;;22.98;71.44;101210.06;1792675;80;21294;-67
2021/07/12 02:29:54;;;;;;;16.55;10.25;;;;;;;23.03;71.42;101207.90;1726922;82;21379;-69
2021/07/12 02:32:28;;;;;;;12.78;10.08;;;;;;;23.07;71.27;101210.33;1740760;81;21205;-68
2021/07/12 02:35:00;;;;;;;;;;;;;;;23.12;71.24;101205.92;1750508;81;21245;-66
2021/07/12 02:37:38;;;;;;;30.30;10.80;;;;;;;23.12;71.26;101200.26;1752364;81;21284;-72
2021/07/12 02:40:15;;;;;;;21.82;9.68;;;;;;;23.08;71.42;101207.75;1756061;81;21159;-72
2021/07/12 02:42:53;;;;;;;14.00;10.13;;;;;;;23.02;71.68;101214.73;1784652;80;21278;-73
2021/07/12 02:45:27;;;;;;;12.47;9.30;;;;;;;22.98;72.12;101210.88;1792607;80;21290;-69
2021/07/12 02:48:00;;;;;;;17.90;10.70;;;;;;;22.97;72.45;101211.23;1764536;80;21241;-69
2021/07/12 02:50:35;;;;;;;14.35;10.63;;;;;;;22.97;72.56;101219.73;1765921;80;21229;-70
2021/07/12 02:53:15;;;;;;;20.68;10.63;;;;;;;23.01;72.61;101222.14;1761609;80;21716;-73
2021/07/12 02:55:47;;;;;;;12.05;9.15;;;;;;;23.01;72.65;101222.14;1772091;80;21403;-68
2021/07/12 02:58:20;;;;;;;24.63;9.90;;;;;;;22.99;72.77;101224.48;1770709;80;21226;-70
2021/07/12 03:00:58;;;;;;;15.23;9.98;;;;;;;23.02;72.86;101230.32;1789409;80;21267;-71
2021/07/12 03:03:31;;;;;;;17.92;10.60;;;;;;;23.03;72.89;101234.81;1779305;80;21861;-71
2021/07/12 03:06:12;;;;;;;15.80;10.10;;;;;;;23.06;72.79;101232.76;1791183;80;21823;-71
2021/07/12 03:09:02;;;;;;;26.57;9.08;;;;;;;23.09;72.75;101232.65;1777516;81;21361;-69
2021/07/12 03:11:49;;;;;;;19.77;10.70;;;;;;;23.07;72.87;101233.57;1774427;80;21328;-71
2021/07/12 03:14:28;;;;;;;15.23;10.38;;;;;;;23.08;73.03;101235.23;1724923;80;21773;-69
2021/07/12 03:17:01;;;;;;;14.43;12.23;;;;;;;23.11;73.02;101233.17;1706367;82;21332;-67
2021/07/12 03:19:38;;;;;;;14.00;11.18;;;;;;;23.10;73.08;101224.42;1697059;83;21318;-70
2021/07/12 03:22:12;;;;;;;33.35;11.50;;;;;;;23.11;73.16;101234.59;1717692;82;21202;-67
2021/07/12 03:24:46;;;;;;;21.77;13.65;;;;;;;23.15;73.21;101232.17;1720944;82;21214;-67
2021/07/12 03:27:21;;;;;;;28.70;14.47;;;;;;;23.19;73.23;101236.63;1707058;83;21315;-65
2021/07/12 03:29:55;;;;;;;20.48;16.32;;;;;;;23.26;73.17;101234.13;1701030;83;21235;-68
2021/07/12 03:32:30;;;;;;;19.23;15.38;;;;;;;23.30;73.02;101243.66;1688383;85;21403;-68
2021/07/12 03:35:05;;;;;;;15.78;13.03;;;;;;;23.32;72.95;101244.14;1697885;83;21365;-68
2021/07/12 03:37:38;;;;;;;19.02;13.05;;;;;;;23.37;72.97;101239.73;1714230;83;21829;-65
2021/07/12 03:40:12;;;;;;;19.25;11.93;;;;;;;23.45;73.01;101243.15;1706560;83;21157;-69
2021/07/12 03:42:47;;;;;;;21.10;12.68;;;;;;;23.52;72.93;101240.68;1688836;83;21362;-69
2021/07/12 03:45:19;;;;;;;19.60;11.00;;;;;;;23.56;72.78;101234.56;1716157;83;21359;-68
2021/07/12 03:47:53;;;;;;;14.40;10.88;;;;;;;23.55;72.68;101228.08;1716039;83;21303;-71
2021/07/12 03:50:28;;;;;;;12.33;11.03;;;;;;;23.57;72.72;101231.98;1717222;83;21303;-69
2021/07/12 03:53:03;;;;;;;16.27;11.53;;;;;;;23.61;72.79;101231.57;1714438;83;21335;-71
2021/07/12 03:55:36;;;;;;;17.87;12.65;;;;;;;23.65;72.83;101232.58;1717013;83;21694;-72
2021/07/12 03:58:08;;;;;;;17.05;12.00;;;;;;;23.68;72.91;101229.91;1717463;83;21299;-71
2021/07/12 04:00:43;;;;;;;19.70;11.50;;;;;;;23.77;72.90;101228.48;1716897;83;21327;-69
2021/07/12 04:03:15;;;;;;;24.93;13.07;;;;;;;23.87;72.63;101232.38;1717406;83;21339;-73
2021/07/12 04:05:48;;;;;;;16.87;12.07;;;;;;;23.93;72.54;101228.23;1717329;83;21169;-69
2021/07/12 04:08:22;;;;;;;13.45;12.15;;;;;;;24.01;72.52;101225.38;1717123;83;21386;-71
2021/07/12 04:10:56;;;;;;;20.45;13.60;;;;;;;24.12;72.33;101227.27;1717032;83;21240;-70
2021/07/12 04:13:29;;;;;;;17.90;12.58;;;;;;;24.23;72.12;101228.58;1713261;83;21836;-71
2021/07/12 04:16:03;;;;;;;17.37;12.70;;;;;;;24.38;72.11;101229.46;1734030;82;21186;-70
2021/07/12 04:18:37;;;;;;;23.42;13.32;;;;;;;24.60;71.64;101227.23;1743441;82;21194;-71
2021/07/12 04:21:09;;;;;;;14.80;12.90;;;;;;;24.87;70.54;101225.92;1744579;82;21187;-69
2021/07/12 04:23:42;;;;;;;22.35;12.00;;;;;;;25.18;69.51;101217.26;1744000;82;21250;-71
2021/07/12 04:26:18;;;;;;;19.77;12.03;;;;;;;25.55;68.42;101221.20;1730312;83;21238;-72
2021/07/12 04:28:50;;;;;;;18.23;13.03;;;;;;;25.92;67.38;101223.87;1730741;83;21282;-70
2021/07/12 04:31:27;;;;;;;15.78;13.08;;;;;;;26.27;65.58;101222.95;1739321;82;21301;-67
2021/07/12 04:34:01;;;;;;;17.20;11.40;;;;;;;26.56;64.86;101230.73;1738839;82;21183;-68
2021/07/12 04:36:35;;;;;;;17.42;13.25;;;;;;;26.83;63.30;101229.22;1743922;82;21746;-69
2021/07/12 04:39:07;;;;;;;14.80;11.90;;;;;;;27.08;61.70;101224.58;1744011;82;21728;-69
2021/07/12 04:41:40;;;;;;;;;;;;;;;27.36;61.69;101221.84;1746467;82;21180;-82
2021/07/12 04:44:12;;;;;;;14.45;11.70;;;;;;;27.70;61.39;101224.33;1744439;82;20170;-71
2021/07/12 04:46:44;;;;;;;14.58;10.80;;;;;;;28.13;59.85;101215.83;1734693;82;21194;-71
2021/07/12 04:49:17;;;;;;;16.37;10.45;;;;;;;28.46;58.36;101224.12;1735803;82;21360;-67
2021/07/12 04:51:51;;;;;;;18.67;11.63;;;;;;;28.76;57.11;101229.03;1725751;82;21194;-79
2021/07/12 04:54:24;;;;;;;14.68;10.50;;;;;;;28.99;56.32;101227.80;1750131;81;21272;-69
2021/07/12 04:56:57;;;;;;;18.67;12.28;;;;;;;29.14;55.41;101226.34;1751925;79;21289;-69
2021/07/12 04:59:38;;;;;;;33.98;12.53;;;;;;;29.30;55.20;101226.30;1745385;82;21278;-69
2021/07/12 05:02:07;;;;;;;18.60;10.43;;;;;;;29.48;55.29;101236.13;1752649;81;21280;-69
2021/07/12 05:04:47;;;;;;;16.10;11.53;;;;;;;29.67;54.65;101226.16;1748883;81;21197;-72
2021/07/12 05:07:15;;;;;;;17.20;11.45;;;;;;;29.79;54.12;101227.45;1753649;81;21312;-70
2021/07/12 05:09:48;;;;;;;16.67;11.53;;;;;;;29.95;53.28;101229.02;1739068;82;21766;-72
2021/07/12 05:12:21;;;;;;;13.62;10.68;;;;;;;30.13;52.20;101237.41;1741417;81;21277;-70
2021/07/12 05:14:54;;;;;;;19.45;10.30;;;;;;;30.28;51.21;101234.23;1761419;81;21246;-70
2021/07/12 05:17:27;;;;;;;14.23;10.80;;;;;;;30.35;50.39;101233.77;1718287;81;21435;-71
2021/07/12 05:19:59;;;;;;;16.55;12.28;;;;;;;30.24;50.92;101237.62;1737661;82;21334;-72
2021/07/12 05:22:32;;;;;;;17.62;11.90;;;;;;;29.97;51.76;101240.95;1761490;81;21175;-73
2021/07/12 05:25:09;;;;;;;14.98;11.75;;;;;;;29.58;52.35;101242.12;1767765;81;21328;-71
2021/07/12 05:27:41;;;;;;;17.12;12.13;;;;;;;29.11;53.22;101248.53;1749761;81;21190;-69
2021/07/12 05:30:17;;;;;;;15.63;11.15;;;;;;;28.75;54.44;101245.97;1690663;83;21290;-70
2021/07/12 05:32:50;;;;;;;15.00;12.98;;;;;;;28.46;55.40;101252.12;1745742;82;21376;-69
2021/07/12 05:35:24;;;;;;;19.65;12.95;;;;;;;28.18;55.96;101245.57;1740160;82;21731;-70
2021/07/12 05:37:57;;;;;;;;;;;;;;;27.94;56.84;101255.69;1743274;82;21924;-71
2021/07/12 05:40:30;;;;;;;19.75;13.98;;;;;;;27.70;57.64;101264.91;1750748;82;20181;-68
2021/07/12 05:43:03;;;;;;;18.75;13.38;;;;;;;27.58;58.62;101258.62;1750692;82;21332;-70
2021/07/12 05:45:36;;;;;;;17.62;12.73;;;;;;;27.76;59.13;101256.33;1750828;82;21277;-68
2021/07/12 05:48:09;;;;;;;19.42;12.50;;;;;;;28.18;58.58;101261.28;1748276;82;21738;-70
2021/07/12 05:50:41;;;;;;;14.03;12.25;;;;;;;28.66;57.54;101257.33;1757969;81;21242;-71
2021/07/12 05:53:15;;;;;;;17.37;12.23;;;;;;;29.10;56.23;101260.37;1737620;82;21921;-70
2021/07/12 05:55:48;;;;;;;20.52;11.45;;;;;;;29.38;54.85;101253.87;1702516;83;21208;-72
2021/07/12 05:58:20;;;;;;;18.20;12.00;;;;;;;29.54;54.11;101259.82;1699904;80;21352;-72
2021/07/12 06:00:55;;;;;;;13.98;11.78;;;;;;;29.71;54.17;101254.29;1680915;85;21208;-73
2021/07/12 06:03:28;;;;;;;15.95;11.57;;;;;;;29.86;54.18;101258.52;1669121;86;21864;-76
2021/07/12 06:06:00;;;;;;;13.43;9.48;;;;;;;29.92;53.58;101261.31;1678088;85;21225;-79
2021/07/12 06:08:34;;;;;;;17.85;10.70;;;;;;;29.90;52.03;101258.59;1677288;85;21226;-69
2021/07/12 06:11:09;;;;;;;13.80;11.00;;;;;;;29.76;52.04;101260.53;1668271;86;21277;-71
2021/07/12 06:13:42;;;;;;;16.73;10.18;;;;;;;29.62;51.44;101264.53;1688047;85;21388;-77
2021/07/12 06:16:20;;;;;;;22.52;10.70;;;;;;;29.53;51.61;101271.05;1700938;84;21187;-70
